Hot Springs, Montana
Current Conditions -  °F | °C
As of 9:40 AM on Thursday 23 Oct 2014 (Local Time) from KMLP Reporting Station
Moderate Rain Moderate Rain  
Wind Chill: 33°   Ceiling: 100
Heat Index: 39°   Visibility: 0.25mi
Dew Point: 39°   Wind: 8mph
Humidity: 100%   Direction: 180°S
Pressure: 29.86"   Gusts: NA
Location:  47.61°N, 114.67°W
Report Text: KMLP 231540Z AUTO 18007KT 140V220 1/4SM RA FG VV001 04/04 A2986 RMK AO2 P0012 T00390039
Loading
Personal Weather Stations






























Interactive Weather Map
Tropical Storm Tracking
New forecast layout! Learn more

10-Day Weather Forecast

Advertisements
Track Severe Weather on mobile